sensor_id;sensor_type;location;lat;lon;timestamp;P1;durP1;ratioP1;P2;durP2;ratioP2
15712;SDS011;7957;51.608;6.916;2022-12-24T00:01:46;24.57;;;7.53;;
15712;SDS011;7957;51.608;6.916;2022-12-24T00:04:13;28.20;;;8.70;;
15712;SDS011;7957;51.608;6.916;2022-12-24T00:06:40;25.60;;;7.67;;
15712;SDS011;7957;51.608;6.916;2022-12-24T00:09:07;26.90;;;8.30;;
15712;SDS011;7957;51.608;6.916;2022-12-24T00:11:36;21.63;;;8.17;;
15712;SDS011;7957;51.608;6.916;2022-12-24T00:14:03;22.77;;;8.20;;
15712;SDS011;7957;51.608;6.916;2022-12-24T00:16:30;22.67;;;8.47;;
15712;SDS011;7957;51.608;6.916;2022-12-24T00:18:57;23.33;;;8.33;;
15712;SDS011;7957;51.608;6.916;2022-12-24T00:21:25;32.00;;;8.80;;
15712;SDS011;7957;51.608;6.916;2022-12-24T00:23:51;25.70;;;7.77;;
15712;SDS011;7957;51.608;6.916;2022-12-24T00:26:18;24.93;;;7.90;;
15712;SDS011;7957;51.608;6.916;2022-12-24T00:28:47;24.43;;;7.13;;
15712;SDS011;7957;51.608;6.916;2022-12-24T00:31:15;29.60;;;7.83;;
15712;SDS011;7957;51.608;6.916;2022-12-24T00:33:44;26.60;;;8.20;;
15712;SDS011;7957;51.608;6.916;2022-12-24T00:36:11;26.90;;;7.60;;
15712;SDS011;7957;51.608;6.916;2022-12-24T00:38:39;21.77;;;6.97;;
15712;SDS011;7957;51.608;6.916;2022-12-24T00:41:07;29.80;;;7.80;;
15712;SDS011;7957;51.608;6.916;2022-12-24T00:43:49;28.63;;;7.60;;
15712;SDS011;7957;51.608;6.916;2022-12-24T00:46:17;27.20;;;7.53;;
15712;SDS011;7957;51.608;6.916;2022-12-24T00:48:44;25.17;;;8.07;;
15712;SDS011;7957;51.608;6.916;2022-12-24T00:51:11;34.87;;;8.47;;
15712;SDS011;7957;51.608;6.916;2022-12-24T00:53:38;24.90;;;7.33;;
15712;SDS011;7957;51.608;6.916;2022-12-24T00:56:05;29.03;;;7.87;;
15712;SDS011;7957;51.608;6.916;2022-12-24T00:58:32;27.47;;;7.97;;
15712;SDS011;7957;51.608;6.916;2022-12-24T01:01:01;30.93;;;8.37;;
15712;SDS011;7957;51.608;6.916;2022-12-24T01:03:28;34.73;;;8.63;;
15712;SDS011;7957;51.608;6.916;2022-12-24T01:06:01;24.57;;;7.67;;
15712;SDS011;7957;51.608;6.916;2022-12-24T01:08:27;27.43;;;7.90;;
15712;SDS011;7957;51.608;6.916;2022-12-24T01:10:54;29.33;;;7.97;;
15712;SDS011;7957;51.608;6.916;2022-12-24T01:13:21;23.27;;;6.83;;
15712;SDS011;7957;51.608;6.916;2022-12-24T01:15:48;33.40;;;9.03;;
15712;SDS011;7957;51.608;6.916;2022-12-24T01:18:17;30.50;;;8.50;;
15712;SDS011;7957;51.608;6.916;2022-12-24T01:20:44;30.20;;;7.90;;
15712;SDS011;7957;51.608;6.916;2022-12-24T01:23:11;26.60;;;8.10;;
15712;SDS011;7957;51.608;6.916;2022-12-24T01:25:37;36.50;;;8.73;;
15712;SDS011;7957;51.608;6.916;2022-12-24T01:28:05;29.10;;;8.17;;
15712;SDS011;7957;51.608;6.916;2022-12-24T01:30:31;30.03;;;8.13;;
15712;SDS011;7957;51.608;6.916;2022-12-24T01:32:58;25.77;;;7.90;;
15712;SDS011;7957;51.608;6.916;2022-12-24T01:35:27;25.00;;;7.80;;
15712;SDS011;7957;51.608;6.916;2022-12-24T01:40:46;28.70;;;8.53;;
15712;SDS011;7957;51.608;6.916;2022-12-24T01:43:30;27.67;;;8.30;;
15712;SDS011;7957;51.608;6.916;2022-12-24T01:45:58;25.23;;;7.13;;
15712;SDS011;7957;51.608;6.916;2022-12-24T01:48:31;33.80;;;8.33;;
15712;SDS011;7957;51.608;6.916;2022-12-24T01:51:03;35.07;;;9.30;;
15712;SDS011;7957;51.608;6.916;2022-12-24T01:53:34;26.00;;;7.47;;
15712;SDS011;7957;51.608;6.916;2022-12-24T01:56:04;29.17;;;8.33;;
15712;SDS011;7957;51.608;6.916;2022-12-24T01:58:34;24.97;;;7.83;;
15712;SDS011;7957;51.608;6.916;2022-12-24T02:01:02;26.00;;;8.37;;
15712;SDS011;7957;51.608;6.916;2022-12-24T02:03:30;25.97;;;7.33;;
15712;SDS011;7957;51.608;6.916;2022-12-24T02:05:57;25.77;;;8.00;;
15712;SDS011;7957;51.608;6.916;2022-12-24T02:08:26;27.17;;;6.93;;
15712;SDS011;7957;51.608;6.916;2022-12-24T02:11:07;24.50;;;7.73;;
15712;SDS011;7957;51.608;6.916;2022-12-24T02:13:38;31.70;;;8.20;;
15712;SDS011;7957;51.608;6.916;2022-12-24T02:16:07;27.93;;;7.80;;
15712;SDS011;7957;51.608;6.916;2022-12-24T02:18:43;29.10;;;8.00;;
15712;SDS011;7957;51.608;6.916;2022-12-24T02:27:27;20.70;;;6.70;;
15712;SDS011;7957;51.608;6.916;2022-12-24T02:30:05;25.90;;;7.80;;
15712;SDS011;7957;51.608;6.916;2022-12-24T02:32:35;26.13;;;7.37;;
15712;SDS011;7957;51.608;6.916;2022-12-24T02:35:22;27.13;;;7.33;;
15712;SDS011;7957;51.608;6.916;2022-12-24T02:37:56;24.23;;;7.63;;
15712;SDS011;7957;51.608;6.916;2022-12-24T02:40:30;30.20;;;7.67;;
15712;SDS011;7957;51.608;6.916;2022-12-24T02:43:02;29.33;;;7.83;;
15712;SDS011;7957;51.608;6.916;2022-12-24T02:45:35;23.53;;;7.20;;
15712;SDS011;7957;51.608;6.916;2022-12-24T02:48:05;30.53;;;8.67;;
15712;SDS011;7957;51.608;6.916;2022-12-24T02:50:32;27.30;;;7.17;;
15712;SDS011;7957;51.608;6.916;2022-12-24T02:53:00;24.17;;;7.17;;
15712;SDS011;7957;51.608;6.916;2022-12-24T02:55:28;22.77;;;6.90;;
15712;SDS011;7957;51.608;6.916;2022-12-24T02:58:07;28.17;;;8.00;;
15712;SDS011;7957;51.608;6.916;2022-12-24T03:00:50;25.30;;;7.90;;
15712;SDS011;7957;51.608;6.916;2022-12-24T03:03:43;31.60;;;7.87;;
15712;SDS011;7957;51.608;6.916;2022-12-24T03:06:28;30.97;;;9.10;;
15712;SDS011;7957;51.608;6.916;2022-12-24T03:09:06;30.90;;;7.63;;
15712;SDS011;7957;51.608;6.916;2022-12-24T03:11:40;31.57;;;7.87;;
15712;SDS011;7957;51.608;6.916;2022-12-24T03:14:15;31.43;;;8.37;;
15712;SDS011;7957;51.608;6.916;2022-12-24T03:16:44;28.27;;;8.60;;
15712;SDS011;7957;51.608;6.916;2022-12-24T03:19:11;22.23;;;7.43;;
15712;SDS011;7957;51.608;6.916;2022-12-24T03:21:39;25.80;;;8.40;;
15712;SDS011;7957;51.608;6.916;2022-12-24T03:24:08;24.23;;;7.70;;
15712;SDS011;7957;51.608;6.916;2022-12-24T03:26:36;23.60;;;7.17;;
15712;SDS011;7957;51.608;6.916;2022-12-24T03:29:04;22.07;;;7.33;;
15712;SDS011;7957;51.608;6.916;2022-12-24T03:31:42;26.97;;;8.03;;
15712;SDS011;7957;51.608;6.916;2022-12-24T03:34:12;19.53;;;7.47;;
15712;SDS011;7957;51.608;6.916;2022-12-24T03:36:40;27.90;;;8.17;;
15712;SDS011;7957;51.608;6.916;2022-12-24T03:39:07;28.97;;;8.03;;
15712;SDS011;7957;51.608;6.916;2022-12-24T03:41:34;31.63;;;8.57;;
15712;SDS011;7957;51.608;6.916;2022-12-24T03:44:03;27.37;;;7.93;;
15712;SDS011;7957;51.608;6.916;2022-12-24T03:46:31;31.17;;;8.63;;
15712;SDS011;7957;51.608;6.916;2022-12-24T03:48:58;31.77;;;8.77;;
15712;SDS011;7957;51.608;6.916;2022-12-24T03:51:26;22.10;;;7.17;;
15712;SDS011;7957;51.608;6.916;2022-12-24T03:53:54;28.33;;;7.63;;
15712;SDS011;7957;51.608;6.916;2022-12-24T03:56:22;28.37;;;8.27;;
15712;SDS011;7957;51.608;6.916;2022-12-24T03:58:49;21.70;;;7.80;;
15712;SDS011;7957;51.608;6.916;2022-12-24T04:01:16;22.13;;;7.60;;
15712;SDS011;7957;51.608;6.916;2022-12-24T04:03:43;32.83;;;8.23;;
15712;SDS011;7957;51.608;6.916;2022-12-24T04:06:11;32.90;;;8.27;;
15712;SDS011;7957;51.608;6.916;2022-12-24T04:08:41;26.73;;;8.10;;
15712;SDS011;7957;51.608;6.916;2022-12-24T04:11:13;25.43;;;7.33;;
15712;SDS011;7957;51.608;6.916;2022-12-24T04:13:41;34.70;;;8.87;;
15712;SDS011;7957;51.608;6.916;2022-12-24T04:16:09;25.47;;;7.53;;
15712;SDS011;7957;51.608;6.916;2022-12-24T04:18:37;29.63;;;8.23;;
15712;SDS011;7957;51.608;6.916;2022-12-24T04:21:05;28.53;;;7.93;;
15712;SDS011;7957;51.608;6.916;2022-12-24T04:23:33;21.50;;;7.40;;
15712;SDS011;7957;51.608;6.916;2022-12-24T04:26:03;25.20;;;7.83;;
15712;SDS011;7957;51.608;6.916;2022-12-24T04:28:31;27.33;;;7.50;;
15712;SDS011;7957;51.608;6.916;2022-12-24T04:30:59;26.07;;;7.33;;
15712;SDS011;7957;51.608;6.916;2022-12-24T04:33:27;22.27;;;7.07;;
15712;SDS011;7957;51.608;6.916;2022-12-24T04:35:56;25.17;;;7.30;;
15712;SDS011;7957;51.608;6.916;2022-12-24T04:38:23;25.43;;;7.10;;
15712;SDS011;7957;51.608;6.916;2022-12-24T04:40:56;29.13;;;7.63;;
15712;SDS011;7957;51.608;6.916;2022-12-24T04:43:26;32.33;;;7.40;;
15712;SDS011;7957;51.608;6.916;2022-12-24T04:45:53;24.47;;;7.63;;
15712;SDS011;7957;51.608;6.916;2022-12-24T04:48:20;27.73;;;6.77;;
15712;SDS011;7957;51.608;6.916;2022-12-24T04:50:47;26.63;;;7.10;;
15712;SDS011;7957;51.608;6.916;2022-12-24T04:53:15;24.13;;;6.70;;
15712;SDS011;7957;51.608;6.916;2022-12-24T04:55:45;22.97;;;6.37;;
15712;SDS011;7957;51.608;6.916;2022-12-24T04:58:12;28.83;;;7.57;;
15712;SDS011;7957;51.608;6.916;2022-12-24T05:00:40;26.93;;;7.33;;
15712;SDS011;7957;51.608;6.916;2022-12-24T05:03:07;27.70;;;7.50;;
15712;SDS011;7957;51.608;6.916;2022-12-24T05:05:34;22.87;;;6.60;;
15712;SDS011;7957;51.608;6.916;2022-12-24T05:08:01;29.00;;;6.97;;
15712;SDS011;7957;51.608;6.916;2022-12-24T05:10:28;22.57;;;7.33;;
15712;SDS011;7957;51.608;6.916;2022-12-24T05:12:55;24.50;;;7.53;;
15712;SDS011;7957;51.608;6.916;2022-12-24T05:15:22;26.13;;;7.13;;
15712;SDS011;7957;51.608;6.916;2022-12-24T05:17:50;21.57;;;6.93;;
15712;SDS011;7957;51.608;6.916;2022-12-24T05:20:17;20.53;;;6.93;;
15712;SDS011;7957;51.608;6.916;2022-12-24T05:22:45;27.03;;;7.07;;
15712;SDS011;7957;51.608;6.916;2022-12-24T05:25:31;20.87;;;6.67;;
15712;SDS011;7957;51.608;6.916;2022-12-24T05:28:19;26.10;;;6.70;;
15712;SDS011;7957;51.608;6.916;2022-12-24T05:30:46;25.07;;;6.83;;
15712;SDS011;7957;51.608;6.916;2022-12-24T05:33:14;23.53;;;7.10;;
15712;SDS011;7957;51.608;6.916;2022-12-24T05:35:41;18.67;;;6.80;;
15712;SDS011;7957;51.608;6.916;2022-12-24T05:38:08;21.73;;;6.77;;
15712;SDS011;7957;51.608;6.916;2022-12-24T05:40:35;21.73;;;6.43;;
15712;SDS011;7957;51.608;6.916;2022-12-24T05:43:02;26.43;;;7.20;;
15712;SDS011;7957;51.608;6.916;2022-12-24T05:45:28;25.53;;;7.50;;
15712;SDS011;7957;51.608;6.916;2022-12-24T05:47:55;23.83;;;6.63;;
15712;SDS011;7957;51.608;6.916;2022-12-24T05:50:23;22.57;;;6.63;;
15712;SDS011;7957;51.608;6.916;2022-12-24T05:52:51;26.43;;;6.83;;
15712;SDS011;7957;51.608;6.916;2022-12-24T05:55:18;28.53;;;7.60;;
15712;SDS011;7957;51.608;6.916;2022-12-24T05:57:44;25.30;;;7.00;;
15712;SDS011;7957;51.608;6.916;2022-12-24T06:00:12;24.57;;;6.10;;
15712;SDS011;7957;51.608;6.916;2022-12-24T06:02:39;16.87;;;5.57;;
15712;SDS011;7957;51.608;6.916;2022-12-24T06:05:06;24.23;;;6.67;;
15712;SDS011;7957;51.608;6.916;2022-12-24T06:07:35;25.47;;;7.80;;
15712;SDS011;7957;51.608;6.916;2022-12-24T06:10:02;20.77;;;6.83;;
15712;SDS011;7957;51.608;6.916;2022-12-24T06:12:30;30.30;;;8.33;;
15712;SDS011;7957;51.608;6.916;2022-12-24T06:14:56;24.40;;;7.00;;
15712;SDS011;7957;51.608;6.916;2022-12-24T06:17:23;25.30;;;7.23;;
15712;SDS011;7957;51.608;6.916;2022-12-24T06:19:50;21.13;;;6.67;;
15712;SDS011;7957;51.608;6.916;2022-12-24T06:22:17;21.77;;;8.00;;
15712;SDS011;7957;51.608;6.916;2022-12-24T06:24:46;24.87;;;7.10;;
15712;SDS011;7957;51.608;6.916;2022-12-24T06:27:12;25.10;;;7.30;;
15712;SDS011;7957;51.608;6.916;2022-12-24T06:29:39;22.93;;;6.97;;
15712;SDS011;7957;51.608;6.916;2022-12-24T06:32:06;22.97;;;6.87;;
15712;SDS011;7957;51.608;6.916;2022-12-24T06:34:33;29.50;;;8.40;;
15712;SDS011;7957;51.608;6.916;2022-12-24T06:37:00;22.87;;;7.43;;
15712;SDS011;7957;51.608;6.916;2022-12-24T06:39:27;20.77;;;7.13;;
15712;SDS011;7957;51.608;6.916;2022-12-24T06:41:57;27.23;;;7.37;;
15712;SDS011;7957;51.608;6.916;2022-12-24T06:44:24;22.73;;;6.83;;
15712;SDS011;7957;51.608;6.916;2022-12-24T06:46:50;25.10;;;6.97;;
15712;SDS011;7957;51.608;6.916;2022-12-24T06:49:17;19.20;;;6.53;;
15712;SDS011;7957;51.608;6.916;2022-12-24T06:51:44;24.77;;;6.57;;
15712;SDS011;7957;51.608;6.916;2022-12-24T06:54:11;26.27;;;7.17;;
15712;SDS011;7957;51.608;6.916;2022-12-24T06:56:38;23.33;;;7.30;;
15712;SDS011;7957;51.608;6.916;2022-12-24T06:59:08;23.43;;;6.63;;
15712;SDS011;7957;51.608;6.916;2022-12-24T07:01:35;23.57;;;6.40;;
15712;SDS011;7957;51.608;6.916;2022-12-24T07:04:01;24.87;;;6.80;;
15712;SDS011;7957;51.608;6.916;2022-12-24T07:06:29;27.27;;;7.50;;
15712;SDS011;7957;51.608;6.916;2022-12-24T07:08:56;19.80;;;6.63;;
15712;SDS011;7957;51.608;6.916;2022-12-24T07:11:23;26.07;;;7.37;;
15712;SDS011;7957;51.608;6.916;2022-12-24T07:13:50;25.70;;;7.83;;
15712;SDS011;7957;51.608;6.916;2022-12-24T07:16:19;22.43;;;6.87;;
15712;SDS011;7957;51.608;6.916;2022-12-24T07:18:46;18.77;;;6.70;;
15712;SDS011;7957;51.608;6.916;2022-12-24T07:21:13;22.77;;;7.10;;
15712;SDS011;7957;51.608;6.916;2022-12-24T07:23:40;20.63;;;6.17;;
15712;SDS011;7957;51.608;6.916;2022-12-24T07:26:07;24.57;;;6.60;;
15712;SDS011;7957;51.608;6.916;2022-12-24T07:28:34;18.70;;;6.23;;
15712;SDS011;7957;51.608;6.916;2022-12-24T07:31:00;28.13;;;7.33;;
15712;SDS011;7957;51.608;6.916;2022-12-24T07:33:29;25.20;;;7.10;;
15712;SDS011;7957;51.608;6.916;2022-12-24T07:35:57;24.43;;;6.80;;
15712;SDS011;7957;51.608;6.916;2022-12-24T07:38:25;22.80;;;6.60;;
15712;SDS011;7957;51.608;6.916;2022-12-24T07:40:52;22.77;;;7.23;;
15712;SDS011;7957;51.608;6.916;2022-12-24T07:43:20;23.20;;;6.43;;
15712;SDS011;7957;51.608;6.916;2022-12-24T07:45:47;19.90;;;6.23;;
15712;SDS011;7957;51.608;6.916;2022-12-24T07:48:14;19.87;;;6.73;;
15712;SDS011;7957;51.608;6.916;2022-12-24T07:50:42;22.70;;;6.87;;
15712;SDS011;7957;51.608;6.916;2022-12-24T07:53:09;27.43;;;7.27;;
15712;SDS011;7957;51.608;6.916;2022-12-24T07:55:36;19.73;;;5.90;;
15712;SDS011;7957;51.608;6.916;2022-12-24T07:58:03;28.40;;;7.67;;
15712;SDS011;7957;51.608;6.916;2022-12-24T08:00:30;23.67;;;6.90;;
15712;SDS011;7957;51.608;6.916;2022-12-24T08:02:56;26.60;;;7.10;;
15712;SDS011;7957;51.608;6.916;2022-12-24T08:05:24;19.57;;;6.67;;
15712;SDS011;7957;51.608;6.916;2022-12-24T08:07:53;23.93;;;7.37;;
15712;SDS011;7957;51.608;6.916;2022-12-24T08:10:20;23.00;;;7.00;;
15712;SDS011;7957;51.608;6.916;2022-12-24T08:12:47;22.70;;;7.43;;
15712;SDS011;7957;51.608;6.916;2022-12-24T08:15:14;24.47;;;7.23;;
15712;SDS011;7957;51.608;6.916;2022-12-24T08:17:41;25.47;;;7.00;;
15712;SDS011;7957;51.608;6.916;2022-12-24T08:20:09;24.30;;;6.80;;
15712;SDS011;7957;51.608;6.916;2022-12-24T08:22:36;24.13;;;7.33;;
15712;SDS011;7957;51.608;6.916;2022-12-24T08:25:05;21.77;;;7.20;;
15712;SDS011;7957;51.608;6.916;2022-12-24T08:27:33;28.03;;;7.67;;
15712;SDS011;7957;51.608;6.916;2022-12-24T08:30:00;28.27;;;8.47;;
15712;SDS011;7957;51.608;6.916;2022-12-24T08:32:27;21.37;;;6.67;;
15712;SDS011;7957;51.608;6.916;2022-12-24T08:34:53;22.07;;;6.90;;
15712;SDS011;7957;51.608;6.916;2022-12-24T08:37:20;32.63;;;8.23;;
15712;SDS011;7957;51.608;6.916;2022-12-24T08:39:47;24.17;;;7.97;;
15712;SDS011;7957;51.608;6.916;2022-12-24T08:42:16;24.63;;;7.33;;
15712;SDS011;7957;51.608;6.916;2022-12-24T08:44:43;28.23;;;7.40;;
15712;SDS011;7957;51.608;6.916;2022-12-24T08:47:10;28.03;;;7.50;;
15712;SDS011;7957;51.608;6.916;2022-12-24T08:49:37;23.00;;;6.90;;
15712;SDS011;7957;51.608;6.916;2022-12-24T08:52:04;30.77;;;8.10;;
15712;SDS011;7957;51.608;6.916;2022-12-24T08:54:32;27.30;;;7.40;;
15712;SDS011;7957;51.608;6.916;2022-12-24T08:56:58;24.03;;;8.20;;
15712;SDS011;7957;51.608;6.916;2022-12-24T08:59:27;32.07;;;8.33;;
15712;SDS011;7957;51.608;6.916;2022-12-24T09:01:54;31.27;;;8.97;;
15712;SDS011;7957;51.608;6.916;2022-12-24T09:04:21;33.53;;;9.30;;
15712;SDS011;7957;51.608;6.916;2022-12-24T09:06:48;25.90;;;8.23;;
15712;SDS011;7957;51.608;6.916;2022-12-24T09:09:15;26.57;;;7.67;;
15712;SDS011;7957;51.608;6.916;2022-12-24T09:11:41;28.07;;;8.20;;
15712;SDS011;7957;51.608;6.916;2022-12-24T09:14:12;32.40;;;9.30;;
15712;SDS011;7957;51.608;6.916;2022-12-24T09:16:40;33.43;;;8.57;;
15712;SDS011;7957;51.608;6.916;2022-12-24T09:19:07;30.80;;;8.33;;
15712;SDS011;7957;51.608;6.916;2022-12-24T09:21:34;27.87;;;8.07;;
15712;SDS011;7957;51.608;6.916;2022-12-24T09:24:03;24.00;;;7.37;;
15712;SDS011;7957;51.608;6.916;2022-12-24T09:26:33;24.50;;;7.63;;
15712;SDS011;7957;51.608;6.916;2022-12-24T09:29:01;25.27;;;7.40;;
15712;SDS011;7957;51.608;6.916;2022-12-24T09:31:29;30.80;;;8.73;;
15712;SDS011;7957;51.608;6.916;2022-12-24T09:33:59;27.80;;;7.20;;
15712;SDS011;7957;51.608;6.916;2022-12-24T09:36:25;28.83;;;7.53;;
15712;SDS011;7957;51.608;6.916;2022-12-24T09:38:52;29.77;;;8.17;;
15712;SDS011;7957;51.608;6.916;2022-12-24T09:41:24;26.43;;;7.37;;
15712;SDS011;7957;51.608;6.916;2022-12-24T09:44:02;37.37;;;8.53;;
15712;SDS011;7957;51.608;6.916;2022-12-24T09:46:42;36.03;;;9.03;;
15712;SDS011;7957;51.608;6.916;2022-12-24T09:49:15;29.30;;;8.13;;
15712;SDS011;7957;51.608;6.916;2022-12-24T09:51:46;33.97;;;8.47;;
15712;SDS011;7957;51.608;6.916;2022-12-24T09:54:18;30.40;;;7.63;;
15712;SDS011;7957;51.608;6.916;2022-12-24T09:56:49;25.80;;;7.83;;
15712;SDS011;7957;51.608;6.916;2022-12-24T09:59:17;31.73;;;8.40;;
15712;SDS011;7957;51.608;6.916;2022-12-24T10:01:48;45.57;;;10.43;;
15712;SDS011;7957;51.608;6.916;2022-12-24T10:04:19;37.00;;;9.60;;
15712;SDS011;7957;51.608;6.916;2022-12-24T10:06:49;37.40;;;9.53;;
15712;SDS011;7957;51.608;6.916;2022-12-24T10:09:25;40.33;;;9.67;;
15712;SDS011;7957;51.608;6.916;2022-12-24T10:11:59;40.97;;;10.30;;
15712;SDS011;7957;51.608;6.916;2022-12-24T10:14:36;40.57;;;10.13;;
15712;SDS011;7957;51.608;6.916;2022-12-24T10:17:17;41.47;;;10.03;;
15712;SDS011;7957;51.608;6.916;2022-12-24T10:19:59;44.73;;;10.17;;
15712;SDS011;7957;51.608;6.916;2022-12-24T10:22:49;44.53;;;9.93;;
15712;SDS011;7957;51.608;6.916;2022-12-24T10:25:25;39.87;;;9.70;;
15712;SDS011;7957;51.608;6.916;2022-12-24T10:27:57;37.97;;;8.93;;
15712;SDS011;7957;51.608;6.916;2022-12-24T10:30:27;40.43;;;9.67;;
15712;SDS011;7957;51.608;6.916;2022-12-24T10:32:54;36.33;;;9.57;;
15712;SDS011;7957;51.608;6.916;2022-12-24T10:35:24;33.40;;;8.53;;
15712;SDS011;7957;51.608;6.916;2022-12-24T10:37:54;38.70;;;9.30;;
15712;SDS011;7957;51.608;6.916;2022-12-24T10:40:24;43.33;;;10.00;;
15712;SDS011;7957;51.608;6.916;2022-12-24T10:42:55;34.50;;;9.30;;
15712;SDS011;7957;51.608;6.916;2022-12-24T10:45:23;35.50;;;9.20;;
15712;SDS011;7957;51.608;6.916;2022-12-24T10:47:57;39.20;;;10.17;;
15712;SDS011;7957;51.608;6.916;2022-12-24T10:50:31;37.33;;;10.17;;
15712;SDS011;7957;51.608;6.916;2022-12-24T10:53:03;41.17;;;10.10;;
15712;SDS011;7957;51.608;6.916;2022-12-24T10:55:46;40.40;;;9.90;;
15712;SDS011;7957;51.608;6.916;2022-12-24T10:58:14;40.70;;;10.07;;
15712;SDS011;7957;51.608;6.916;2022-12-24T11:00:47;38.53;;;9.83;;
15712;SDS011;7957;51.608;6.916;2022-12-24T11:03:21;36.60;;;9.30;;
15712;SDS011;7957;51.608;6.916;2022-12-24T11:06:00;39.73;;;11.00;;
15712;SDS011;7957;51.608;6.916;2022-12-24T11:08:33;40.77;;;10.03;;
15712;SDS011;7957;51.608;6.916;2022-12-24T11:11:00;43.97;;;10.50;;
15712;SDS011;7957;51.608;6.916;2022-12-24T11:13:29;34.20;;;9.90;;
15712;SDS011;7957;51.608;6.916;2022-12-24T11:15:59;40.40;;;9.80;;
15712;SDS011;7957;51.608;6.916;2022-12-24T11:18:30;38.07;;;12.17;;
15712;SDS011;7957;51.608;6.916;2022-12-24T11:20:58;41.40;;;11.17;;
15712;SDS011;7957;51.608;6.916;2022-12-24T11:23:27;40.63;;;10.63;;
15712;SDS011;7957;51.608;6.916;2022-12-24T11:25:54;43.50;;;10.13;;
15712;SDS011;7957;51.608;6.916;2022-12-24T11:28:23;38.30;;;10.33;;
15712;SDS011;7957;51.608;6.916;2022-12-24T11:30:55;42.30;;;10.83;;
15712;SDS011;7957;51.608;6.916;2022-12-24T11:33:24;38.70;;;9.53;;
15712;SDS011;7957;51.608;6.916;2022-12-24T11:35:53;36.80;;;10.07;;
15712;SDS011;7957;51.608;6.916;2022-12-24T11:38:23;43.67;;;10.93;;
15712;SDS011;7957;51.608;6.916;2022-12-24T11:40:57;39.83;;;9.80;;
15712;SDS011;7957;51.608;6.916;2022-12-24T11:43:27;38.70;;;10.93;;
15712;SDS011;7957;51.608;6.916;2022-12-24T11:46:14;43.87;;;11.03;;
15712;SDS011;7957;51.608;6.916;2022-12-24T11:48:47;34.93;;;10.27;;
15712;SDS011;7957;51.608;6.916;2022-12-24T11:51:30;37.73;;;10.10;;
15712;SDS011;7957;51.608;6.916;2022-12-24T11:53:59;38.83;;;11.23;;
15712;SDS011;7957;51.608;6.916;2022-12-24T11:56:35;37.00;;;10.70;;
15712;SDS011;7957;51.608;6.916;2022-12-24T11:59:37;42.93;;;11.13;;
15712;SDS011;7957;51.608;6.916;2022-12-24T12:02:42;41.43;;;11.87;;
15712;SDS011;7957;51.608;6.916;2022-12-24T12:05:15;35.97;;;10.87;;
15712;SDS011;7957;51.608;6.916;2022-12-24T12:07:45;35.07;;;10.63;;
15712;SDS011;7957;51.608;6.916;2022-12-24T12:10:16;34.70;;;10.97;;
15712;SDS011;7957;51.608;6.916;2022-12-24T12:12:49;37.63;;;10.70;;
15712;SDS011;7957;51.608;6.916;2022-12-24T12:15:23;37.33;;;10.30;;
15712;SDS011;7957;51.608;6.916;2022-12-24T12:17:55;40.00;;;11.90;;
15712;SDS011;7957;51.608;6.916;2022-12-24T12:20:27;35.87;;;9.97;;
15712;SDS011;7957;51.608;6.916;2022-12-24T12:22:59;34.43;;;10.13;;
15712;SDS011;7957;51.608;6.916;2022-12-24T12:25:34;37.33;;;10.83;;
15712;SDS011;7957;51.608;6.916;2022-12-24T12:28:10;40.50;;;10.00;;
15712;SDS011;7957;51.608;6.916;2022-12-24T12:30:43;40.37;;;11.13;;
15712;SDS011;7957;51.608;6.916;2022-12-24T12:33:15;39.53;;;11.00;;
15712;SDS011;7957;51.608;6.916;2022-12-24T12:35:48;39.20;;;11.33;;
15712;SDS011;7957;51.608;6.916;2022-12-24T12:38:18;40.27;;;11.20;;
15712;SDS011;7957;51.608;6.916;2022-12-24T12:40:55;34.03;;;10.83;;
15712;SDS011;7957;51.608;6.916;2022-12-24T12:43:36;36.40;;;11.27;;
15712;SDS011;7957;51.608;6.916;2022-12-24T12:46:18;33.03;;;10.77;;
15712;SDS011;7957;51.608;6.916;2022-12-24T12:48:54;35.20;;;10.73;;
15712;SDS011;7957;51.608;6.916;2022-12-24T12:51:31;39.50;;;11.33;;
15712;SDS011;7957;51.608;6.916;2022-12-24T12:54:11;38.13;;;10.23;;
15712;SDS011;7957;51.608;6.916;2022-12-24T12:57:07;39.70;;;11.43;;
15712;SDS011;7957;51.608;6.916;2022-12-24T12:59:43;35.73;;;10.50;;
15712;SDS011;7957;51.608;6.916;2022-12-24T13:08:48;41.77;;;11.67;;
15712;SDS011;7957;51.608;6.916;2022-12-24T13:11:39;35.53;;;10.57;;
15712;SDS011;7957;51.608;6.916;2022-12-24T13:14:25;35.63;;;9.80;;
15712;SDS011;7957;51.608;6.916;2022-12-24T13:17:13;36.73;;;9.67;;
15712;SDS011;7957;51.608;6.916;2022-12-24T13:20:14;31.83;;;9.63;;
15712;SDS011;7957;51.608;6.916;2022-12-24T13:22:47;36.83;;;10.37;;
15712;SDS011;7957;51.608;6.916;2022-12-24T13:25:19;33.07;;;10.23;;
15712;SDS011;7957;51.608;6.916;2022-12-24T13:27:48;37.80;;;9.67;;
15712;SDS011;7957;51.608;6.916;2022-12-24T13:32:59;34.77;;;10.43;;
15712;SDS011;7957;51.608;6.916;2022-12-24T13:35:32;30.83;;;9.87;;
15712;SDS011;7957;51.608;6.916;2022-12-24T13:44:13;31.43;;;9.90;;
15712;SDS011;7957;51.608;6.916;2022-12-24T13:46:46;37.43;;;11.13;;
15712;SDS011;7957;51.608;6.916;2022-12-24T13:49:18;29.23;;;10.00;;
15712;SDS011;7957;51.608;6.916;2022-12-24T13:51:50;30.50;;;9.47;;
15712;SDS011;7957;51.608;6.916;2022-12-24T13:54:18;37.27;;;9.87;;
15712;SDS011;7957;51.608;6.916;2022-12-24T13:56:54;31.63;;;8.80;;
15712;SDS011;7957;51.608;6.916;2022-12-24T13:59:24;34.93;;;10.00;;
15712;SDS011;7957;51.608;6.916;2022-12-24T14:01:55;31.40;;;9.90;;
15712;SDS011;7957;51.608;6.916;2022-12-24T14:04:26;27.87;;;9.27;;
15712;SDS011;7957;51.608;6.916;2022-12-24T14:06:59;29.70;;;9.93;;
15712;SDS011;7957;51.608;6.916;2022-12-24T14:09:29;32.60;;;9.70;;
15712;SDS011;7957;51.608;6.916;2022-12-24T14:18:26;33.13;;;9.97;;
15712;SDS011;7957;51.608;6.916;2022-12-24T14:20:55;32.87;;;9.63;;
15712;SDS011;7957;51.608;6.916;2022-12-24T14:23:27;29.00;;;9.87;;
15712;SDS011;7957;51.608;6.916;2022-12-24T14:25:59;27.87;;;9.57;;
15712;SDS011;7957;51.608;6.916;2022-12-24T14:28:30;29.43;;;10.27;;
15712;SDS011;7957;51.608;6.916;2022-12-24T14:31:01;24.50;;;9.23;;
15712;SDS011;7957;51.608;6.916;2022-12-24T14:33:29;29.20;;;9.70;;
15712;SDS011;7957;51.608;6.916;2022-12-24T14:35:58;33.07;;;10.77;;
15712;SDS011;7957;51.608;6.916;2022-12-24T14:38:26;25.07;;;9.50;;
15712;SDS011;7957;51.608;6.916;2022-12-24T14:40:56;33.53;;;10.00;;
15712;SDS011;7957;51.608;6.916;2022-12-24T14:43:38;31.60;;;10.07;;
15712;SDS011;7957;51.608;6.916;2022-12-24T14:46:15;31.77;;;10.23;;
15712;SDS011;7957;51.608;6.916;2022-12-24T14:48:51;28.83;;;10.53;;
15712;SDS011;7957;51.608;6.916;2022-12-24T14:51:25;30.90;;;9.93;;
15712;SDS011;7957;51.608;6.916;2022-12-24T14:54:03;31.23;;;10.80;;
15712;SDS011;7957;51.608;6.916;2022-12-24T14:56:39;29.43;;;10.47;;
15712;SDS011;7957;51.608;6.916;2022-12-24T14:59:13;28.60;;;9.23;;
15712;SDS011;7957;51.608;6.916;2022-12-24T15:01:43;26.07;;;9.97;;
15712;SDS011;7957;51.608;6.916;2022-12-24T15:04:14;27.97;;;10.50;;
15712;SDS011;7957;51.608;6.916;2022-12-24T15:06:45;31.23;;;11.40;;
15712;SDS011;7957;51.608;6.916;2022-12-24T15:09:19;30.87;;;11.17;;
15712;SDS011;7957;51.608;6.916;2022-12-24T15:11:49;28.27;;;10.73;;
15712;SDS011;7957;51.608;6.916;2022-12-24T15:14:19;28.40;;;11.10;;
15712;SDS011;7957;51.608;6.916;2022-12-24T15:16:51;24.53;;;10.53;;
15712;SDS011;7957;51.608;6.916;2022-12-24T15:19:21;29.80;;;11.57;;
15712;SDS011;7957;51.608;6.916;2022-12-24T15:21:58;26.03;;;10.70;;
15712;SDS011;7957;51.608;6.916;2022-12-24T15:24:27;26.27;;;11.57;;
15712;SDS011;7957;51.608;6.916;2022-12-24T15:26:59;28.13;;;11.73;;
15712;SDS011;7957;51.608;6.916;2022-12-24T15:29:27;25.47;;;11.33;;
15712;SDS011;7957;51.608;6.916;2022-12-24T15:31:56;25.50;;;10.20;;
15712;SDS011;7957;51.608;6.916;2022-12-24T15:34:25;27.83;;;10.90;;
15712;SDS011;7957;51.608;6.916;2022-12-24T15:37:01;28.03;;;11.93;;